Search for airport 
image banner adimage banner adimage banner ad
image banner ad

PN38 - Culmerville

Located in Culmerville, United States

ICAO - PN38, IATA -

Data provided by Airmate  

General information

Coordinates: N40°39'45" W79°50'44"
Elevation is 1220 feet MSL.
Magnetic variation is -08° East
View others Airports in Pennsylvania

Operational data

Special qualification required
Current time UTC:
Current local time:
METAR: KBTP 071256Z AUTO 01004KT 10SM -RA BKN037 OVC047 06/04 A2990 RMK AO2 SLP134 P0000 T00560044
View NOTAMs / SUP AIP / TFR affecting this airport [VIEW]
Communications frequencies: [VIEW]

Runways:

RWY identifierQFULength (ft)Width (ft)SurfaceLDA (ft)
091700192GRASS
271700192GRASS

Airport contact information

Address: Culmerville United States

Satellite view of PN38